createdAt,value
2019-06-26T06:44:17.090Z,57.80
2019-06-26T06:49:11.337Z,51.20
2019-06-26T06:51:38.256Z,62.80
2019-06-26T06:56:33.490Z,59.30
2019-06-26T06:59:00.502Z,55.20
2019-06-26T07:03:56.031Z,50.30
2019-06-26T07:08:51.231Z,44.20
2019-06-26T07:11:18.167Z,41.00
2019-06-26T07:16:12.370Z,33.30
2019-06-26T07:18:39.324Z,39.30
2019-06-26T07:21:06.331Z,31.50
2019-06-26T07:23:33.274Z,33.40
2019-06-26T07:26:00.312Z,30.50
2019-06-26T07:28:27.226Z,30.60
2019-06-26T07:30:54.160Z,32.20
2019-06-26T07:33:21.090Z,29.60
2019-06-26T07:35:48.020Z,35.80
2019-06-26T07:38:15.018Z,29.70
2019-06-26T07:40:42.031Z,29.70
2019-06-26T07:43:08.963Z,30.00
2019-06-26T07:45:35.880Z,30.70
2019-06-26T07:48:02.916Z,38.70
2019-06-26T07:50:32.320Z,33.30
2019-06-26T07:52:58.673Z,37.70
2019-06-26T07:55:25.594Z,27.20
2019-06-26T07:57:52.617Z,26.70
2019-06-26T08:00:19.945Z,26.80
2019-06-26T08:02:46.924Z,27.00
2019-06-26T08:05:14.189Z,30.30
2019-06-26T08:07:41.220Z,25.90
2019-06-26T08:10:08.999Z,26.50
2019-06-26T08:12:35.918Z,25.70
2019-06-26T08:15:05.744Z,26.10
2019-06-26T08:17:32.666Z,24.60
2019-06-26T08:19:59.606Z,25.00
2019-06-26T08:22:26.536Z,25.00
2019-06-26T08:24:53.557Z,24.90
2019-06-26T08:27:21.665Z,24.50
2019-06-26T08:29:48.873Z,24.10
2019-06-26T08:32:15.819Z,24.00
2019-06-26T08:34:42.825Z,24.60
2019-06-26T08:37:09.769Z,24.70
2019-06-26T08:39:36.714Z,24.60
2019-06-26T08:42:04.256Z,24.70
2019-06-26T08:44:31.326Z,24.70
2019-06-26T08:46:58.331Z,23.80
2019-06-26T08:49:26.516Z,23.10
2019-06-26T08:51:54.213Z,22.90
2019-06-26T08:54:21.141Z,22.10
2019-06-26T08:56:49.928Z,22.40
2019-06-26T08:59:16.922Z,21.60
2019-06-26T09:01:43.959Z,20.50
2019-06-26T09:04:10.879Z,20.70
2019-06-26T09:06:37.812Z,20.10
2019-06-26T09:09:06.439Z,19.90
2019-06-26T09:11:34.346Z,20.00
2019-06-26T09:14:02.458Z,19.90
2019-06-26T09:16:29.488Z,20.10
2019-06-26T09:18:56.447Z,20.20
2019-06-26T09:21:23.382Z,20.60
2019-06-26T09:23:50.540Z,20.30
2019-06-26T09:26:17.547Z,20.50
2019-06-26T09:28:44.463Z,19.80
2019-06-26T09:31:11.398Z,19.70
2019-06-26T09:33:38.332Z,20.10
2019-06-26T09:36:06.974Z,20.30
2019-06-26T09:38:34.084Z,20.60
2019-06-26T09:41:01.009Z,20.50
2019-06-26T09:43:27.949Z,20.10
2019-06-26T09:45:54.928Z,20.10
2019-06-26T09:48:23.182Z,19.70
2019-06-26T09:50:50.086Z,19.80
2019-06-26T09:53:16.912Z,19.40
2019-06-26T09:55:43.845Z,19.30
2019-06-26T09:58:13.171Z,18.80
2019-06-26T10:00:39.684Z,18.50
2019-06-26T10:03:06.608Z,18.10
2019-06-26T10:05:35.327Z,18.10
2019-06-26T10:08:02.557Z,17.60
2019-06-26T10:10:29.487Z,17.00
2019-06-26T10:12:56.698Z,17.10
2019-06-26T10:15:23.664Z,16.90
2019-06-26T10:17:50.580Z,16.40
2019-06-26T10:20:17.638Z,16.30
2019-06-26T10:22:44.742Z,16.30
2019-06-26T10:25:12.173Z,16.60
2019-06-26T10:27:39.238Z,16.70
2019-06-26T10:30:07.294Z,17.20
2019-06-26T10:32:34.297Z,16.50
2019-06-26T10:35:01.271Z,16.30
2019-06-26T10:37:28.211Z,16.70
2019-06-26T10:39:55.156Z,16.70
2019-06-26T10:42:22.205Z,16.70
2019-06-26T10:44:49.150Z,16.40
2019-06-26T10:47:16.085Z,16.30
2019-06-26T10:49:43.035Z,16.40
2019-06-26T10:52:09.956Z,14.40
2019-06-26T10:54:36.889Z,12.10
2019-06-26T10:57:03.834Z,13.10
2019-06-26T10:59:30.792Z,13.60
2019-06-26T11:01:57.813Z,13.20
2019-06-26T11:04:24.735Z,12.80
2019-06-26T11:06:51.770Z,11.70
2019-06-26T11:09:18.697Z,12.40
2019-06-26T11:11:45.643Z,14.20
2019-06-26T11:14:12.676Z,14.50
2019-06-26T11:16:39.596Z,14.90
2019-06-26T11:19:06.515Z,15.30
2019-06-26T11:21:34.460Z,14.80
2019-06-26T11:24:01.384Z,14.10
2019-06-26T11:26:28.318Z,13.20
2019-06-26T11:28:56.259Z,14.40
2019-06-26T11:31:23.318Z,13.70
2019-06-26T11:33:50.363Z,14.60
2019-06-26T11:36:17.525Z,15.20
2019-06-26T11:38:44.613Z,16.30
2019-06-26T11:41:11.656Z,16.10
2019-06-26T11:43:38.638Z,16.10
2019-06-26T11:46:05.802Z,15.50
2019-06-26T11:48:32.906Z,15.60
2019-06-26T11:50:59.942Z,15.40
2019-06-26T11:53:26.901Z,15.30
2019-06-26T11:55:53.825Z,15.00
2019-06-26T11:58:20.813Z,15.00
2019-06-26T12:00:47.902Z,15.20
2019-06-26T12:03:15.011Z,14.90
2019-06-26T12:05:41.934Z,14.80
2019-06-26T12:08:09.040Z,14.70
2019-06-26T12:10:37.295Z,14.40
2019-06-26T12:13:04.498Z,14.40
2019-06-26T12:15:31.545Z,14.70
2019-06-26T12:17:58.477Z,14.80
2019-06-26T12:20:25.401Z,14.60
2019-06-26T12:22:52.341Z,14.60
2019-06-26T12:25:19.259Z,14.60
2019-06-26T12:27:46.185Z,14.50
2019-06-26T12:30:14.617Z,14.60
2019-06-26T12:32:47.390Z,14.50
2019-06-26T12:35:11.645Z,14.30
2019-06-26T12:37:38.688Z,14.30
2019-06-26T12:40:07.140Z,14.50
2019-06-26T12:42:34.111Z,14.00
2019-06-26T12:45:02.950Z,14.00
2019-06-26T12:47:29.907Z,13.70
2019-06-26T12:49:56.825Z,13.70
2019-06-26T12:52:23.768Z,13.90
2019-06-26T12:54:51.713Z,14.00
2019-06-26T12:57:18.727Z,14.00
2019-06-26T12:59:56.698Z,14.10
2019-06-26T13:02:14.520Z,12.20
2019-06-26T13:04:44.624Z,10.70
2019-06-26T13:07:10.307Z,9.30
2019-06-26T13:09:38.276Z,9.10
2019-06-26T13:12:05.199Z,9.40
2019-06-26T13:14:32.132Z,9.90
2019-06-26T13:16:59.087Z,10.70
2019-06-26T13:19:25.899Z,10.70
2019-06-26T13:21:52.835Z,9.70
2019-06-26T13:24:19.826Z,8.70
2019-06-26T13:26:46.824Z,9.00
2019-06-26T13:29:15.316Z,10.50
2019-06-26T13:31:42.247Z,11.50
2019-06-26T13:34:09.175Z,10.80
2019-06-26T13:36:36.100Z,11.20
2019-06-26T13:39:05.918Z,11.70
2019-06-26T13:41:32.854Z,11.00
2019-06-26T13:44:00.094Z,9.60
2019-06-26T13:46:27.188Z,9.90
2019-06-26T13:48:54.102Z,11.00
2019-06-26T13:51:21.751Z,11.20
2019-06-26T13:53:48.884Z,10.30
2019-06-26T13:56:15.708Z,10.70
2019-06-26T13:58:43.528Z,11.50
2019-06-26T14:01:10.465Z,10.50
2019-06-26T14:03:37.393Z,10.70
2019-06-26T14:06:04.352Z,10.60
2019-06-26T14:08:32.889Z,11.30
2019-06-26T14:11:00.116Z,10.20
2019-06-26T14:13:27.036Z,11.40
2019-06-26T14:15:53.959Z,11.20
2019-06-26T14:18:20.891Z,10.80
2019-06-26T14:20:47.844Z,9.70
2019-06-26T14:23:14.796Z,10.90
2019-06-26T14:25:41.800Z,12.40
2019-06-26T14:28:08.759Z,12.60
2019-06-26T14:30:35.678Z,13.00
2019-06-26T14:33:02.607Z,13.20
2019-06-26T14:35:29.543Z,13.30
2019-06-26T14:37:56.495Z,13.20
2019-06-26T14:40:23.419Z,13.40
2019-06-26T14:42:50.354Z,13.40
2019-06-26T14:45:17.394Z,20.50
2019-06-26T14:47:44.398Z,22.00
2019-06-26T14:50:12.619Z,20.00
2019-06-26T14:52:39.657Z,17.60
2019-06-26T14:55:06.988Z,16.90
2019-06-26T14:57:34.026Z,16.40
2019-06-26T15:00:00.963Z,16.20
2019-06-26T15:02:31.909Z,17.30
2019-06-26T15:04:58.572Z,16.70
2019-06-26T15:07:25.486Z,16.30
2019-06-26T15:09:52.440Z,16.10
2019-06-26T15:12:19.395Z,16.20
2019-06-26T15:14:46.518Z,16.30
2019-06-26T15:17:13.511Z,16.30
2019-06-26T15:19:42.250Z,16.40
2019-06-26T15:22:09.206Z,16.50
2019-06-26T15:24:36.125Z,16.70
2019-06-26T15:27:04.687Z,16.70
2019-06-26T15:29:31.632Z,17.00
2019-06-26T15:31:58.557Z,17.10
2019-06-26T15:34:26.373Z,17.10
2019-06-26T15:36:53.584Z,17.20
2019-06-26T15:39:20.896Z,17.20
2019-06-26T15:41:47.834Z,17.40
2019-06-26T15:44:14.783Z,17.40
2019-06-26T15:46:41.802Z,17.60
2019-06-26T15:49:08.746Z,17.50
2019-06-26T15:51:35.685Z,17.70
2019-06-26T15:54:02.757Z,17.80
2019-06-26T15:56:29.815Z,17.90
2019-06-26T15:58:56.828Z,18.00
2019-06-26T16:01:23.848Z,18.20
2019-06-26T16:03:52.153Z,18.30
2019-06-26T16:06:19.683Z,18.40
2019-06-26T16:08:47.705Z,18.30
2019-06-26T16:11:14.531Z,18.30
2019-06-26T16:13:41.477Z,18.40
2019-06-26T16:16:08.464Z,18.50
2019-06-26T16:18:37.556Z,18.60
2019-06-26T16:21:04.478Z,18.00
2019-06-26T16:23:31.425Z,18.00
2019-06-26T16:25:58.663Z,18.10
2019-06-26T16:28:26.821Z,18.50
2019-06-26T16:30:53.849Z,18.20
2019-06-26T16:33:20.778Z,18.20
2019-06-26T16:35:47.706Z,18.20
2019-06-26T16:38:14.527Z,18.20
2019-06-26T16:40:41.471Z,18.30
2019-06-26T16:43:08.417Z,18.20
2019-06-26T16:45:35.502Z,18.30
2019-06-26T16:48:02.449Z,18.40
2019-06-26T16:50:29.388Z,18.50
2019-06-26T16:52:56.316Z,18.50
2019-06-26T16:55:23.226Z,18.40
2019-06-26T16:57:50.160Z,18.50
2019-06-26T17:00:17.379Z,18.50
2019-06-26T17:02:44.309Z,18.40
2019-06-26T17:05:11.325Z,18.20
2019-06-26T17:07:38.263Z,18.30
2019-06-26T17:10:09.364Z,18.40
2019-06-26T17:12:37.423Z,18.50
2019-06-26T17:15:06.617Z,18.60
2019-06-26T17:17:33.564Z,18.60
2019-06-26T17:20:00.505Z,18.50
2019-06-26T17:22:28.640Z,18.60
2019-06-26T17:25:18.941Z,18.60
2019-06-26T17:27:48.338Z,18.20
2019-06-26T17:30:15.656Z,18.00
2019-06-26T17:32:42.579Z,18.70
2019-06-26T17:35:09.812Z,18.60
2019-06-26T17:37:36.794Z,18.20
2019-06-26T17:40:05.733Z,18.30
2019-06-26T17:42:32.775Z,18.90
2019-06-26T17:44:59.726Z,19.00
2019-06-26T17:47:26.751Z,19.00
2019-06-26T17:49:53.765Z,19.10
2019-06-26T17:52:20.704Z,19.20
2019-06-26T17:54:47.639Z,19.40
2019-06-26T17:57:14.459Z,19.60
2019-06-26T17:59:41.394Z,19.30
2019-06-26T18:02:08.327Z,19.60
2019-06-26T18:04:35.406Z,19.80
2019-06-26T18:07:04.238Z,20.00
2019-06-26T18:09:31.258Z,19.90
2019-06-26T18:11:59.314Z,19.50
2019-06-26T18:14:26.250Z,20.20
2019-06-26T18:16:55.098Z,19.50
2019-06-26T18:19:22.152Z,19.80
2019-06-26T18:21:49.152Z,19.50
2019-06-26T18:24:16.193Z,19.90
2019-06-26T18:26:43.740Z,19.70
2019-06-26T18:29:11.732Z,20.00
2019-06-26T18:31:38.722Z,20.10
2019-06-26T18:34:05.725Z,19.90
2019-06-26T18:36:33.731Z,24.10
2019-06-26T18:39:00.803Z,20.20
2019-06-26T18:41:27.742Z,20.40
2019-06-26T18:43:54.687Z,20.40
2019-06-26T18:46:24.789Z,20.70
2019-06-26T18:48:50.598Z,20.50
2019-06-26T18:51:17.626Z,20.80
2019-06-26T18:53:53.531Z,20.80
2019-06-26T18:56:13.415Z,20.90
2019-06-26T18:58:40.347Z,22.20
2019-06-26T19:01:07.419Z,16.60
2019-06-26T19:03:34.365Z,18.60
2019-06-26T19:10:56.174Z,23.00
2019-06-26T19:20:46.769Z,29.00
2019-06-26T19:25:41.169Z,27.60
2019-06-26T19:52:41.892Z,26.50
2019-06-26T19:57:39.231Z,23.20
2019-06-26T20:02:35.522Z,23.30
2019-06-26T20:05:05.267Z,23.70
2019-06-26T20:07:33.767Z,24.60
2019-06-26T20:10:01.984Z,26.70
2019-06-26T20:12:30.581Z,27.00
2019-06-26T20:17:24.962Z,28.20
2019-06-26T20:19:52.127Z,29.60
2019-06-26T20:22:19.307Z,33.60
